Time;durP1;ratioP1;P1;durP2;ratioP2;P2;SDS_P1;SDS_P2;PMS_P1;PMS_P2;Temp;Humidity;BMP_temperature;BMP_pressure;BME280_temperature;BME280_humidity;BME280_pressure;Samples;Min_cycle;Max_cycle;Signal;HPM_P1;HPM_P2
2023/07/02 00:02:23;;;;;;;16.42;10.40;;;15.70;99.90;;;;;;5092120;28;20020;-50
2023/07/02 00:04:49;;;;;;;17.50;10.57;;;15.60;99.90;;;;;;5091979;28;20064;-49
2023/07/02 00:07:14;;;;;;;13.75;10.70;;;15.60;99.90;;;;;;5091700;28;20013;-50
2023/07/02 00:09:40;;;;;;;16.73;10.35;;;15.60;99.90;;;;;;5088589;28;20081;-48
2023/07/02 00:12:06;;;;;;;14.15;10.10;;;15.60;99.90;;;;;;5091658;28;20032;-51
2023/07/02 00:14:32;;;;;;;12.30;9.77;;;15.60;99.90;;;;;;5087589;28;20024;-49
2023/07/02 00:16:58;;;;;;;15.55;10.68;;;15.60;99.90;;;;;;5091147;28;20028;-48
2023/07/02 00:19:23;;;;;;;13.70;10.45;;;15.60;99.90;;;;;;5091500;28;20032;-51
2023/07/02 00:21:49;;;;;;;20.15;11.35;;;15.60;99.90;;;;;;5091438;28;20060;-50
2023/07/02 00:24:15;;;;;;;12.90;10.13;;;15.50;99.90;;;;;;5091331;28;20023;-51
2023/07/02 00:26:42;;;;;;;12.02;10.25;;;15.60;99.90;;;;;;5073296;28;20354;-51
2023/07/02 00:29:09;;;;;;;18.48;10.88;;;15.50;99.90;;;;;;5090958;28;20228;-51
2023/07/02 00:31:35;;;;;;;17.48;11.85;;;15.50;99.90;;;;;;5091551;28;20016;-51
2023/07/02 00:34:01;;;;;;;22.63;12.00;;;15.60;99.90;;;;;;5043623;28;20109;-51
2023/07/02 00:36:27;;;;;;;19.48;11.63;;;15.60;99.90;;;;;;5079685;28;20031;-50
2023/07/02 00:38:53;;;;;;;19.55;12.02;;;15.50;99.90;;;;;;5072922;28;20393;-51
2023/07/02 00:41:18;;;;;;;13.13;11.63;;;15.60;99.90;;;;;;5073310;28;20020;-50
2023/07/02 00:43:44;;;;;;;19.02;12.07;;;15.60;99.90;;;;;;5091536;28;20384;-51
2023/07/02 00:46:19;;;;;;;17.75;11.68;;;15.60;99.90;;;;;;5091198;28;20028;-51
2023/07/02 00:48:50;;;;;;;15.88;11.70;;;15.60;99.90;;;;;;5031891;28;20031;-49
2023/07/02 00:51:19;;;;;;;;;;;15.60;99.90;;;;;;4986175;28;20034;-50
2023/07/02 00:53:46;;;;;;;18.33;11.73;;;15.60;99.90;;;;;;4971105;28;19906;-50
2023/07/02 00:56:12;;;;;;;18.30;11.02;;;15.60;99.90;;;;;;4988110;28;20095;-50
2023/07/02 00:58:39;;;;;;;19.30;10.93;;;15.60;99.90;;;;;;4988169;28;20065;-51
2023/07/02 01:01:05;;;;;;;15.75;11.48;;;15.60;99.90;;;;;;4971083;28;20491;-50
2023/07/02 01:03:32;;;;;;;18.25;10.98;;;15.60;99.90;;;;;;4988439;28;20026;-49
2023/07/02 01:05:59;;;;;;;18.85;11.15;;;15.60;99.90;;;;;;5058366;28;20016;-49
2023/07/02 01:08:24;;;;;;;12.77;10.60;;;15.60;99.90;;;;;;5090155;28;20016;-51
2023/07/02 01:10:50;;;;;;;17.30;11.23;;;15.60;99.90;;;;;;5090604;28;20107;-50
2023/07/02 01:13:21;;;;;;;10.60;9.23;;;15.60;99.90;;;;;;5090569;28;20032;-50
2023/07/02 01:15:48;;;;;;;14.85;10.05;;;15.60;99.90;;;;;;5090544;28;20020;-50
2023/07/02 01:18:15;;;;;;;15.70;10.40;;;15.60;99.90;;;;;;5089888;28;20031;-51
2023/07/02 01:20:41;;;;;;;12.88;9.00;;;15.60;99.90;;;;;;5090329;28;20032;-49
2023/07/02 01:23:09;;;;;;;14.23;9.63;;;15.60;99.90;;;;;;5090462;28;20358;-51
2023/07/02 01:25:36;;;;;;;21.15;9.32;;;15.60;99.90;;;;;;5090403;28;20016;-51
2023/07/02 01:28:02;;;;;;;13.80;9.68;;;15.60;99.90;;;;;;5089862;28;20578;-48
2023/07/02 01:30:28;;;;;;;12.10;9.18;;;15.60;99.90;;;;;;5047076;28;20489;-51
2023/07/02 01:32:53;;;;;;;12.55;8.70;;;15.60;99.90;;;;;;5090098;28;20035;-51
2023/07/02 01:35:19;;;;;;;13.40;8.05;;;15.60;99.90;;;;;;5071980;28;20024;-51
2023/07/02 01:37:44;;;;;;;18.10;9.60;;;15.60;99.90;;;;;;5071438;28;20493;-50
2023/07/02 01:40:10;;;;;;;15.15;8.98;;;15.60;99.90;;;;;;5090306;28;20031;-48
2023/07/02 01:42:36;;;;;;;16.35;8.40;;;15.50;99.90;;;;;;5089790;28;20050;-50
2023/07/02 01:45:02;;;;;;;14.23;8.70;;;15.50;99.90;;;;;;5090017;28;20385;-49
2023/07/02 01:47:28;;;;;;;18.42;8.43;;;15.50;99.90;;;;;;5008896;28;20030;-48
2023/07/02 01:49:53;;;;;;;14.30;8.27;;;15.50;99.90;;;;;;5007371;28;20427;-50
2023/07/02 01:52:19;;;;;;;11.68;7.85;;;15.50;99.90;;;;;;5007350;28;20069;-50
2023/07/02 01:54:46;;;;;;;10.05;7.68;;;15.50;99.90;;;;;;5007502;28;20038;-49
2023/07/02 01:57:11;;;;;;;13.88;7.22;;;15.40;99.90;;;;;;5006479;28;20025;-50
2023/07/02 01:59:37;;;;;;;14.02;7.68;;;15.40;99.90;;;;;;5007976;28;20035;-48
2023/07/02 02:02:02;;;;;;;13.07;6.60;;;15.40;99.90;;;;;;5089651;28;20242;-49
2023/07/02 02:04:28;;;;;;;11.65;7.63;;;15.30;99.90;;;;;;5089695;28;20440;-51
2023/07/02 02:06:53;;;;;;;10.65;7.35;;;15.30;99.90;;;;;;5089237;28;20081;-48
2023/07/02 02:09:19;;;;;;;13.38;6.90;;;15.30;99.90;;;;;;5071413;28;20077;-51
2023/07/02 02:11:52;;;;;;;11.02;6.43;;;15.30;99.90;;;;;;5089397;28;20020;-51
2023/07/02 02:14:17;;;;;;;8.27;6.35;;;15.30;99.90;;;;;;5089624;28;20020;-50
2023/07/02 02:16:47;;;;;;;12.75;6.57;;;15.20;99.90;;;;;;5089333;28;20024;-51
2023/07/02 02:19:14;;;;;;;13.45;6.45;;;15.20;99.90;;;;;;5089223;28;20436;-51
2023/07/02 02:21:40;;;;;;;11.55;6.47;;;15.20;99.90;;;;;;5089487;28;20323;-51
2023/07/02 02:24:07;;;;;;;9.18;5.80;;;15.20;99.90;;;;;;5089681;28;20081;-52
2023/07/02 02:26:33;;;;;;;13.93;6.07;;;15.20;99.90;;;;;;5089679;28;20085;-50
2023/07/02 02:28:58;;;;;;;13.07;7.22;;;15.20;99.90;;;;;;5067276;28;20211;-51
2023/07/02 02:31:24;;;;;;;11.90;5.57;;;15.10;99.90;;;;;;5072596;28;20035;-50
2023/07/02 02:33:49;;;;;;;14.20;6.32;;;15.20;99.90;;;;;;5089563;28;20032;-51
2023/07/02 02:36:17;;;;;;;14.05;5.85;;;15.10;99.90;;;;;;5089496;28;20040;-51
2023/07/02 02:38:42;;;;;;;12.20;6.30;;;15.10;99.90;;;;;;5070866;28;20055;-51
2023/07/02 02:41:08;;;;;;;14.93;6.03;;;15.10;99.90;;;;;;5089386;28;20056;-51
2023/07/02 02:43:34;;;;;;;14.23;6.13;;;15.10;99.90;;;;;;5089044;28;20113;-50
2023/07/02 02:46:00;;;;;;;9.45;5.57;;;15.10;99.90;;;;;;5041732;28;20019;-50
2023/07/02 02:48:25;;;;;;;11.23;5.78;;;15.00;99.90;;;;;;4986711;28;20105;-51
2023/07/02 02:50:51;;;;;;;16.15;6.22;;;15.00;99.90;;;;;;4986874;28;20031;-48
2023/07/02 02:53:17;;;;;;;10.88;6.00;;;15.00;99.90;;;;;;4986959;28;20018;-47
2023/07/02 02:55:42;;;;;;;7.57;5.90;;;15.00;99.90;;;;;;4987187;28;20395;-50
2023/07/02 02:58:08;;;;;;;11.57;5.88;;;14.90;99.90;;;;;;5017177;28;20028;-48
2023/07/02 03:00:33;;;;;;;11.68;6.38;;;14.90;99.90;;;;;;5093115;28;20035;-50
2023/07/02 03:02:59;;;;;;;14.57;5.82;;;14.90;99.90;;;;;;5074841;28;20024;-48
2023/07/02 03:05:24;;;;;;;7.63;6.25;;;14.90;99.90;;;;;;5077452;28;20027;-49
2023/07/02 03:07:51;;;;;;;11.85;6.20;;;14.90;99.90;;;;;;5092101;28;20020;-49
2023/07/02 03:10:17;;;;;;;11.95;6.32;;;14.90;99.90;;;;;;5092984;28;20038;-51
2023/07/02 03:12:42;;;;;;;9.05;5.63;;;14.90;99.90;;;;;;5092848;28;20115;-51
2023/07/02 03:15:09;;;;;;;10.95;6.22;;;15.00;99.90;;;;;;5061746;28;20037;-47
2023/07/02 03:17:34;;;;;;;13.43;5.63;;;15.00;99.90;;;;;;4989490;28;20030;-50
2023/07/02 03:20:00;;;;;;;7.85;5.68;;;15.00;99.90;;;;;;4990021;28;20084;-51
2023/07/02 03:22:25;;;;;;;10.65;6.70;;;15.00;99.90;;;;;;4972357;28;20041;-47
2023/07/02 03:24:51;;;;;;;9.98;5.82;;;15.00;99.90;;;;;;4989599;28;20432;-48
2023/07/02 03:27:17;;;;;;;7.30;5.22;;;15.00;99.90;;;;;;4989076;28;20124;-50
2023/07/02 03:29:42;;;;;;;10.70;6.57;;;15.00;99.90;;;;;;4989054;28;20027;-50
2023/07/02 03:32:08;;;;;;;11.23;6.57;;;15.10;99.90;;;;;;4978980;28;20584;-50
2023/07/02 03:34:33;;;;;;;7.53;5.47;;;15.10;99.90;;;;;;4973053;28;20273;-48
2023/07/02 03:36:59;;;;;;;8.25;6.32;;;15.10;99.90;;;;;;5050285;28;20034;-50
2023/07/02 03:39:24;;;;;;;11.05;5.90;;;15.10;99.90;;;;;;5092245;28;20381;-48
2023/07/02 03:41:50;;;;;;;10.82;6.15;;;15.10;99.90;;;;;;5030376;28;20025;-50
2023/07/02 03:44:15;;;;;;;11.90;5.95;;;15.10;99.90;;;;;;5009489;28;20086;-50
2023/07/02 03:46:41;;;;;;;9.25;5.65;;;15.10;99.90;;;;;;5009042;28;20026;-48
2023/07/02 03:49:06;;;;;;;11.65;6.25;;;15.20;99.90;;;;;;5008946;28;20033;-50
2023/07/02 03:51:32;;;;;;;9.35;5.78;;;15.20;99.90;;;;;;5009032;28;20502;-49
2023/07/02 03:54:01;;;;;;;8.73;5.78;;;15.20;99.90;;;;;;5009253;28;20078;-48
2023/07/02 03:56:26;;;;;;;10.82;5.40;;;15.20;99.90;;;;;;5008411;28;20026;-50
2023/07/02 03:58:52;;;;;;;9.23;6.13;;;15.20;99.90;;;;;;5008639;28;20349;-49
2023/07/02 04:01:18;;;;;;;15.13;6.90;;;15.30;99.90;;;;;;5009398;28;20087;-50
2023/07/02 04:03:52;;;;;;;8.10;5.07;;;15.30;99.90;;;;;;5008942;28;20034;-51
2023/07/02 04:06:18;;;;;;;10.57;5.63;;;15.30;99.90;;;;;;5044286;28;20051;-50
2023/07/02 04:08:44;;;;;;;9.02;5.03;;;15.30;99.90;;;;;;5091549;28;20508;-48
2023/07/02 04:11:11;;;;;;;9.45;5.95;;;15.40;99.90;;;;;;5068439;28;20391;-50
2023/07/02 04:13:36;;;;;;;7.35;5.43;;;15.30;99.90;;;;;;5079750;28;20032;-50
2023/07/02 04:16:02;;;;;;;8.75;5.32;;;15.30;99.90;;;;;;5092150;28;20031;-50
2023/07/02 04:18:29;;;;;;;9.95;5.45;;;15.40;99.90;;;;;;5091071;28;20050;-47
2023/07/02 04:20:55;;;;;;;8.55;5.35;;;15.40;99.90;;;;;;5073172;28;20016;-50
2023/07/02 04:23:20;;;;;;;6.63;5.38;;;15.40;99.90;;;;;;5073226;28;20114;-48
2023/07/02 04:25:46;;;;;;;11.30;6.05;;;15.50;99.90;;;;;;5073018;28;20024;-51
2023/07/02 04:28:11;;;;;;;10.10;5.95;;;15.50;99.90;;;;;;5090940;28;20052;-47
2023/07/02 04:30:37;;;;;;;8.68;5.88;;;15.60;99.90;;;;;;5091526;28;20035;-49
2023/07/02 04:33:02;;;;;;;12.93;5.78;;;15.60;99.90;;;;;;5091066;28;20103;-48
2023/07/02 04:35:28;;;;;;;16.55;6.53;;;15.70;99.90;;;;;;5091297;28;20028;-48
2023/07/02 04:37:53;;;;;;;13.23;5.68;;;15.70;99.90;;;;;;5090860;28;20028;-47
2023/07/02 04:40:19;;;;;;;12.63;5.78;;;15.70;99.90;;;;;;5072778;28;20024;-48
2023/07/02 04:42:46;;;;;;;8.77;5.38;;;15.70;99.90;;;;;;5039490;28;20028;-47
2023/07/02 04:45:13;;;;;;;9.95;6.45;;;15.80;99.90;;;;;;5005833;28;20038;-49
2023/07/02 04:47:38;;;;;;;14.20;6.05;;;15.80;99.90;;;;;;5024933;28;20086;-50
2023/07/02 04:50:05;;;;;;;7.53;5.10;;;15.70;99.90;;;;;;4997759;28;20109;-49
2023/07/02 04:52:31;;;;;;;10.32;5.50;;;15.80;99.90;;;;;;4988609;28;20287;-49
2023/07/02 04:54:57;;;;;;;13.00;6.07;;;15.80;99.90;;;;;;4971072;28;20026;-50
2023/07/02 04:57:22;;;;;;;6.25;5.30;;;15.70;99.90;;;;;;4987886;28;20534;-49
2023/07/02 04:59:48;;;;;;;8.07;5.32;;;15.70;99.90;;;;;;4988470;28;20029;-48
2023/07/02 05:02:13;;;;;;;12.15;5.68;;;15.70;99.90;;;;;;5000859;28;20117;-51
2023/07/02 05:04:39;;;;;;;10.20;6.57;;;15.70;99.90;;;;;;5051377;28;20079;-48
2023/07/02 05:07:04;;;;;;;12.02;6.57;;;15.60;99.90;;;;;;5007517;28;20117;-53
2023/07/02 05:09:30;;;;;;;13.38;6.88;;;15.60;99.90;;;;;;5007898;28;20053;-49
2023/07/02 05:11:56;;;;;;;12.23;7.15;;;15.60;99.90;;;;;;5008101;28;20068;-49
2023/07/02 05:14:22;;;;;;;13.00;8.23;;;15.60;99.90;;;;;;5002165;28;20030;-50
2023/07/02 05:16:48;;;;;;;14.57;7.63;;;15.60;99.90;;;;;;5084864;28;20020;-49
2023/07/02 05:19:14;;;;;;;8.40;7.43;;;15.60;99.90;;;;;;5090418;28;20028;-49
2023/07/02 05:21:39;;;;;;;14.80;8.23;;;15.60;99.90;;;;;;5089635;28;20111;-49
2023/07/02 05:24:05;;;;;;;9.77;7.10;;;15.60;99.90;;;;;;5068305;28;20028;-50
2023/07/02 05:26:31;;;;;;;13.63;7.97;;;15.70;99.90;;;;;;5089623;28;20024;-50
2023/07/02 05:28:56;;;;;;;12.43;7.90;;;15.70;99.90;;;;;;5090124;28;20459;-51
2023/07/02 05:31:22;;;;;;;16.60;8.43;;;15.70;99.90;;;;;;5090343;28;20067;-50
2023/07/02 05:33:47;;;;;;;14.00;8.32;;;15.70;99.90;;;;;;5085491;28;20118;-50
2023/07/02 05:36:13;;;;;;;12.88;8.20;;;15.70;99.90;;;;;;5089710;28;20107;-51
2023/07/02 05:38:39;;;;;;;11.52;7.70;;;15.70;99.90;;;;;;5089713;28;20028;-51
2023/07/02 05:41:04;;;;;;;14.90;8.27;;;15.70;99.90;;;;;;5089930;28;20025;-51
2023/07/02 05:43:30;;;;;;;14.50;8.60;;;15.80;99.90;;;;;;5089303;28;20095;-50
2023/07/02 05:46:00;;;;;;;11.77;8.00;;;15.80;99.90;;;;;;5090124;28;20028;-51
2023/07/02 05:48:25;;;;;;;12.55;8.43;;;15.80;99.90;;;;;;5089632;28;20155;-51
2023/07/02 05:50:51;;;;;;;10.73;7.72;;;15.80;99.90;;;;;;5090311;28;20418;-51
2023/07/02 05:53:16;;;;;;;9.55;8.55;;;15.80;99.90;;;;;;5090198;28;20024;-48
2023/07/02 05:55:42;;;;;;;16.05;8.88;;;15.80;99.90;;;;;;5052169;28;20020;-50
2023/07/02 05:58:08;;;;;;;12.15;8.82;;;15.80;99.90;;;;;;5089613;28;20405;-51
2023/07/02 06:00:34;;;;;;;11.25;8.52;;;15.80;99.90;;;;;;5089734;28;20328;-49
2023/07/02 06:02:59;;;;;;;10.43;7.65;;;15.80;99.90;;;;;;5050251;28;20016;-50
2023/07/02 06:05:25;;;;;;;10.93;8.38;;;15.80;99.90;;;;;;5089685;28;20042;-48
2023/07/02 06:07:50;;;;;;;14.43;9.02;;;15.90;99.90;;;;;;5086436;28;20134;-49
2023/07/02 06:10:16;;;;;;;11.98;8.43;;;15.90;99.90;;;;;;4987055;28;20057;-49
2023/07/02 06:12:43;;;;;;;16.77;8.65;;;15.90;99.90;;;;;;4987572;28;20031;-49
2023/07/02 06:15:09;;;;;;;9.85;8.13;;;15.90;99.90;;;;;;4969267;28;20035;-50
2023/07/02 06:17:34;;;;;;;14.27;8.43;;;16.00;99.90;;;;;;4986586;28;20556;-51
2023/07/02 06:20:01;;;;;;;12.18;8.35;;;16.00;99.90;;;;;;4987128;28;20037;-51
2023/07/02 06:22:26;;;;;;;14.30;8.55;;;16.00;99.90;;;;;;4987280;28;20033;-51
2023/07/02 06:24:52;;;;;;;27.10;8.30;;;16.00;99.90;;;;;;5036189;28;20024;-50
2023/07/02 06:27:17;;;;;;;13.55;7.88;;;16.00;99.90;;;;;;5085555;28;20025;-48
2023/07/02 06:29:43;;;;;;;15.73;7.80;;;16.10;99.90;;;;;;4986776;28;20070;-49
2023/07/02 06:32:08;;;;;;;11.88;6.30;;;16.20;99.90;;;;;;4969225;28;20390;-49
2023/07/02 06:34:35;;;;;;;14.50;8.50;;;16.30;99.90;;;;;;5040947;28;20036;-49
2023/07/02 06:37:00;;;;;;;18.63;8.43;;;16.40;99.90;;;;;;4989971;28;20018;-47
2023/07/02 06:39:26;;;;;;;13.73;7.50;;;16.40;99.90;;;;;;4990253;28;20053;-48
2023/07/02 06:41:51;;;;;;;18.15;7.40;;;16.50;99.90;;;;;;5000855;28;20031;-48
2023/07/02 06:44:17;;;;;;;15.38;7.55;;;16.60;99.90;;;;;;5093319;28;20537;-48
2023/07/02 06:46:46;;;;;;;16.45;7.07;;;16.70;99.90;;;;;;5065752;28;20541;-48
2023/07/02 06:49:11;;;;;;;13.10;6.80;;;16.70;99.90;;;;;;5093022;28;20032;-51
2023/07/02 06:51:37;;;;;;;14.63;7.20;;;16.90;99.90;;;;;;5093058;28;20042;-48
2023/07/02 06:54:02;;;;;;;16.02;6.88;;;16.90;99.90;;;;;;5026352;28;20078;-49
2023/07/02 06:56:28;;;;;;;15.18;7.65;;;16.90;99.90;;;;;;5069951;28;20027;-48
2023/07/02 06:58:53;;;;;;;16.30;7.15;;;17.00;99.90;;;;;;5061035;28;20019;-48
2023/07/02 07:01:19;;;;;;;12.52;7.07;;;17.00;99.90;;;;;;5011705;28;20019;-50
2023/07/02 07:03:45;;;;;;;15.05;8.10;;;17.00;99.90;;;;;;4972424;28;20437;-49
2023/07/02 07:06:11;;;;;;;20.00;7.22;;;17.00;99.90;;;;;;5047786;28;20030;-49
2023/07/02 07:08:39;;;;;;;17.50;8.30;;;17.10;99.90;;;;;;4997685;28;20037;-48
2023/07/02 07:11:05;;;;;;;23.40;7.03;;;17.10;99.90;;;;;;5019807;28;20019;-50
2023/07/02 07:13:30;;;;;;;21.92;7.28;;;17.10;99.90;;;;;;5042393;28;20525;-50
2023/07/02 07:15:56;;;;;;;16.65;8.23;;;17.20;99.90;;;;;;5066654;28;20078;-50
2023/07/02 07:18:21;;;;;;;21.48;7.38;;;17.20;99.90;;;;;;5070091;28;20030;-50
2023/07/02 07:20:47;;;;;;;22.05;8.40;;;17.20;99.90;;;;;;4995522;28;20014;-49
2023/07/02 07:23:13;;;;;;;19.83;8.15;;;17.20;99.90;;;;;;5091222;28;20028;-50
2023/07/02 07:25:38;;;;;;;20.38;8.25;;;17.20;99.90;;;;;;5001023;28;20029;-48
2023/07/02 07:28:04;;;;;;;18.20;8.23;;;17.30;99.90;;;;;;5049477;28;20028;-48
2023/07/02 07:30:29;;;;;;;17.23;7.97;;;17.40;99.90;;;;;;5011075;28;20054;-48
2023/07/02 07:32:56;;;;;;;18.63;7.72;;;17.50;99.90;;;;;;4988359;28;20505;-50
2023/07/02 07:35:22;;;;;;;26.17;9.07;;;17.60;99.90;;;;;;4988535;28;20032;-50
2023/07/02 07:37:48;;;;;;;20.77;9.00;;;17.70;99.90;;;;;;4988072;28;20026;-49
2023/07/02 07:40:14;;;;;;;26.73;8.75;;;17.60;99.90;;;;;;4988641;28;20498;-50
2023/07/02 07:42:41;;;;;;;15.02;7.55;;;17.70;99.90;;;;;;4988864;28;20030;-49
2023/07/02 07:45:07;;;;;;;19.92;8.57;;;17.90;99.90;;;;;;4987359;28;20023;-49
2023/07/02 07:47:32;;;;;;;21.08;8.18;;;18.00;99.90;;;;;;4987998;28;20559;-49
2023/07/02 07:49:58;;;;;;;20.65;8.00;;;18.10;99.90;;;;;;4988288;28;20030;-49
2023/07/02 07:52:23;;;;;;;19.10;8.00;;;18.30;99.90;;;;;;4987585;28;20034;-47
2023/07/02 07:54:49;;;;;;;21.55;8.73;;;18.40;99.90;;;;;;4986805;28;20521;-50
2023/07/02 07:57:14;;;;;;;17.77;8.05;;;18.50;99.90;;;;;;4992623;28;20055;-51
2023/07/02 07:59:40;;;;;;;18.73;8.02;;;18.50;99.90;;;;;;5027397;28;20018;-50
2023/07/02 08:02:06;;;;;;;24.38;9.38;;;18.60;99.90;;;;;;5011867;28;20054;-50
2023/07/02 08:04:32;;;;;;;19.58;8.70;;;18.70;99.90;;;;;;5091756;28;20293;-48
2023/07/02 08:06:57;;;;;;;15.23;8.05;;;19.00;99.90;;;;;;5002572;28;20087;-48
2023/07/02 08:09:24;;;;;;;17.40;8.00;;;19.10;99.90;;;;;;5029933;28;20045;-50
2023/07/02 08:11:49;;;;;;;18.83;7.80;;;19.30;99.90;;;;;;4987748;28;20712;-50
2023/07/02 08:14:18;;;;;;;19.08;8.55;;;19.50;99.90;;;;;;4988198;28;20038;-51
2023/07/02 08:16:44;;;;;;;17.20;7.30;;;20.20;99.90;;;;;;5017526;28;20038;-50
2023/07/02 08:19:09;;;;;;;16.52;7.68;;;20.90;99.90;;;;;;5028292;28;20018;-49
2023/07/02 08:21:35;;;;;;;13.82;7.85;;;21.80;97.20;;;;;;4988453;28;20079;-49
2023/07/02 08:24:00;;;;;;;20.13;7.72;;;22.30;93.50;;;;;;4988783;28;20031;-50
2023/07/02 08:26:26;;;;;;;12.82;7.50;;;22.80;92.10;;;;;;4979462;28;20022;-50
2023/07/02 08:28:52;;;;;;;16.15;8.15;;;23.30;91.00;;;;;;4963091;28;20029;-49
2023/07/02 08:31:18;;;;;;;15.50;8.35;;;23.80;87.90;;;;;;4971191;28;20041;-51
2023/07/02 08:33:43;;;;;;;13.65;7.38;;;24.20;85.90;;;;;;4977418;28;20027;-48
2023/07/02 08:36:09;;;;;;;19.30;8.15;;;24.50;84.70;;;;;;4969134;28;20038;-48
2023/07/02 08:38:34;;;;;;;13.77;7.25;;;24.40;84.40;;;;;;4951457;28;20511;-50
2023/07/02 08:41:00;;;;;;;17.73;8.18;;;23.70;85.40;;;;;;4969345;28;20031;-50
2023/07/02 08:43:27;;;;;;;16.08;7.80;;;23.30;87.00;;;;;;4982441;28;20031;-50
2023/07/02 08:45:53;;;;;;;18.45;7.65;;;23.00;88.40;;;;;;5038984;28;20024;-51
2023/07/02 08:48:22;;;;;;;20.02;7.95;;;22.90;88.90;;;;;;5089888;28;20023;-49
2023/07/02 08:50:49;;;;;;;16.77;8.55;;;23.20;88.40;;;;;;5068155;28;20079;-51
2023/07/02 08:53:14;;;;;;;14.38;7.82;;;24.10;85.80;;;;;;5090648;28;20027;-49
2023/07/02 08:55:40;;;;;;;21.10;8.27;;;24.50;84.60;;;;;;5090645;28;20020;-49
2023/07/02 08:58:06;;;;;;;17.05;8.63;;;25.10;79.90;;;;;;5033106;28;20038;-51
2023/07/02 09:00:36;;;;;;;19.27;9.20;;;25.00;77.80;;;;;;4987770;28;20026;-51
2023/07/02 09:03:15;;;;;;;18.40;8.35;;;24.30;77.80;;;;;;4987922;28;20033;-50
2023/07/02 09:05:52;;;;;;;21.92;8.18;;;23.80;80.30;;;;;;5020932;28;20044;-48
2023/07/02 09:08:25;;;;;;;17.08;8.18;;;23.50;79.80;;;;;;5004486;28;20338;-52
2023/07/02 09:10:50;;;;;;;15.48;7.70;;;24.40;79.00;;;;;;4987825;28;20022;-51
2023/07/02 09:13:16;;;;;;;17.80;8.13;;;24.90;77.20;;;;;;4987854;28;20038;-50
2023/07/02 09:15:42;;;;;;;17.30;8.52;;;24.60;75.30;;;;;;4987595;28;20637;-51
2023/07/02 09:18:18;;;;;;;21.98;9.65;;;25.10;73.20;;;;;;4987521;28;20707;-50
2023/07/02 09:20:44;;;;;;;16.10;8.95;;;25.40;73.00;;;;;;4990923;28;20100;-51
2023/07/02 09:23:09;;;;;;;12.13;7.78;;;26.20;69.80;;;;;;4970187;28;20039;-51
2023/07/02 09:25:40;;;;;;;17.20;7.95;;;26.10;70.90;;;;;;4970961;28;20109;-51
2023/07/02 09:28:19;;;;;;;16.48;8.00;;;26.40;69.80;;;;;;5031359;28;20024;-51
2023/07/02 09:30:58;;;;;;;19.70;8.27;;;26.60;70.00;;;;;;4989321;28;20018;-51
2023/07/02 09:33:25;;;;;;;13.52;7.70;;;27.30;70.10;;;;;;4987586;28;20111;-52
2023/07/02 09:35:51;;;;;;;12.80;7.85;;;27.00;68.10;;;;;;4987943;28;20489;-51
2023/07/02 09:38:21;;;;;;;14.20;7.90;;;27.50;66.10;;;;;;4990516;28;20018;-52
2023/07/02 09:40:51;;;;;;;15.50;7.45;;;27.20;66.70;;;;;;4990346;28;20030;-50
2023/07/02 09:43:18;;;;;;;15.23;8.32;;;27.40;65.30;;;;;;5052177;28;20024;-51
2023/07/02 09:45:49;;;;;;;21.42;7.95;;;27.90;63.70;;;;;;4990549;28;20495;-52
2023/07/02 09:48:16;;;;;;;16.27;7.95;;;27.90;62.50;;;;;;4989435;28;20065;-50
2023/07/02 09:50:44;;;;;;;13.65;7.85;;;28.10;63.30;;;;;;5035330;28;20020;-52
2023/07/02 09:53:10;;;;;;;15.80;7.78;;;28.40;60.90;;;;;;5075244;28;20439;-51
2023/07/02 09:55:38;;;;;;;13.93;8.32;;;29.00;64.40;;;;;;5022309;28;20110;-51
2023/07/02 09:58:04;;;;;;;18.40;7.90;;;28.10;62.40;;;;;;5084944;28;20039;-51
2023/07/02 10:00:29;;;;;;;14.43;8.30;;;27.50;63.50;;;;;;5043896;28;20026;-51
2023/07/02 10:02:55;;;;;;;20.13;8.77;;;26.70;63.80;;;;;;5072169;28;20099;-51
2023/07/02 10:05:30;;;;;;;21.92;8.52;;;25.70;64.70;;;;;;5076455;28;20069;-51
2023/07/02 10:07:57;;;;;;;18.98;9.32;;;24.90;66.00;;;;;;5083613;28;20099;-51
2023/07/02 10:10:30;;;;;;;15.30;7.95;;;24.20;68.10;;;;;;5078286;28;20027;-50
2023/07/02 10:12:56;;;;;;;22.92;9.45;;;24.00;67.60;;;;;;5089275;28;20020;-48
2023/07/02 10:15:28;;;;;;;19.45;8.15;;;24.80;66.60;;;;;;5080156;28;20023;-51
2023/07/02 10:18:00;;;;;;;16.35;8.70;;;25.00;66.80;;;;;;5042494;28;20080;-51
2023/07/02 10:20:40;;;;;;;15.23;7.70;;;24.50;67.00;;;;;;4986394;28;20058;-52
2023/07/02 10:23:07;;;;;;;18.80;8.80;;;24.10;68.60;;;;;;5085859;28;20024;-51
2023/07/02 10:25:37;;;;;;;16.60;8.32;;;23.90;70.40;;;;;;5056657;28;20030;-50
2023/07/02 10:28:19;;;;;;;19.02;7.50;;;23.20;70.90;;;;;;5044208;28;20031;-50
2023/07/02 10:30:45;;;;;;;17.60;8.88;;;23.10;69.80;;;;;;5038187;28;20034;-49
2023/07/02 10:33:16;;;;;;;17.42;8.25;;;23.50;71.10;;;;;;5006834;28;20027;-49
2023/07/02 10:35:44;;;;;;;18.25;8.38;;;25.00;67.40;;;;;;4958493;28;20061;-49
2023/07/02 10:38:21;;;;;;;19.73;8.30;;;24.70;67.70;;;;;;4968855;28;20037;-50
2023/07/02 10:40:53;;;;;;;18.73;8.98;;;23.90;68.10;;;;;;4986569;28;20114;-49
2023/07/02 10:43:25;;;;;;;19.10;8.85;;;23.10;69.60;;;;;;5083311;28;20024;-49
2023/07/02 10:45:50;;;;;;;21.15;8.25;;;22.40;71.90;;;;;;5047971;28;20484;-48
2023/07/02 10:48:16;;;;;;;17.58;8.98;;;21.90;73.70;;;;;;5059491;28;20048;-49
2023/07/02 10:50:41;;;;;;;19.85;8.63;;;21.80;75.30;;;;;;4980647;28;20026;-49
2023/07/02 10:53:18;;;;;;;15.30;8.43;;;22.80;74.40;;;;;;5034253;28;20062;-52
2023/07/02 10:55:44;;;;;;;20.05;8.60;;;23.90;72.10;;;;;;4986913;28;20022;-51
2023/07/02 10:58:11;;;;;;;18.70;8.82;;;25.30;68.00;;;;;;5001683;28;20058;-52
2023/07/02 11:00:50;;;;;;;19.02;8.75;;;26.20;64.50;;;;;;5021123;28;20403;-49
2023/07/02 11:03:26;;;;;;;15.90;8.53;;;26.20;63.30;;;;;;4993988;28;20103;-50
2023/07/02 11:05:52;;;;;;;18.70;8.55;;;26.80;61.80;;;;;;5035643;28;20079;-51
2023/07/02 11:08:21;;;;;;;15.75;8.68;;;26.00;64.60;;;;;;5005255;28;20458;-48
2023/07/02 11:10:46;;;;;;;17.70;8.73;;;25.10;65.10;;;;;;4998975;28;20028;-48
2023/07/02 11:13:17;;;;;;;16.80;8.60;;;24.40;68.60;;;;;;5079558;28;20123;-50
2023/07/02 11:15:45;;;;;;;16.92;8.27;;;23.80;66.80;;;;;;5063975;28;20427;-50
2023/07/02 11:18:12;;;;;;;12.88;8.60;;;23.10;66.30;;;;;;5024324;28;20027;-50
2023/07/02 11:20:39;;;;;;;15.98;8.15;;;22.80;67.20;;;;;;4988208;28;20034;-49
2023/07/02 11:23:16;;;;;;;17.15;9.10;;;22.80;68.40;;;;;;4988747;28;20034;-50
2023/07/02 11:25:41;;;;;;;20.23;8.43;;;22.90;68.50;;;;;;4989009;28;20026;-50
2023/07/02 11:28:07;;;;;;;21.80;8.35;;;24.50;67.20;;;;;;4988318;28;20023;-51
2023/07/02 11:30:35;;;;;;;13.63;7.25;;;25.00;65.20;;;;;;4992393;28;20106;-50
2023/07/02 11:33:00;;;;;;;13.98;7.70;;;25.90;65.90;;;;;;4989203;28;20291;-50
2023/07/02 11:35:36;;;;;;;14.05;8.55;;;26.30;63.60;;;;;;4989387;28;20030;-50
2023/07/02 11:38:01;;;;;;;16.63;8.00;;;25.70;62.00;;;;;;4991103;28;20018;-50
2023/07/02 11:40:27;;;;;;;16.75;7.72;;;25.80;61.00;;;;;;4989033;28;20026;-51
2023/07/02 11:42:52;;;;;;;17.60;7.47;;;25.30;62.00;;;;;;4993909;28;20031;-51
2023/07/02 11:45:18;;;;;;;18.05;8.65;;;24.80;63.30;;;;;;5044768;28;20057;-51
2023/07/02 11:47:43;;;;;;;12.80;6.63;;;24.40;62.60;;;;;;4988313;28;20019;-49
2023/07/02 11:50:09;;;;;;;15.23;7.68;;;25.60;63.00;;;;;;4989392;28;20042;-50
2023/07/02 11:52:35;;;;;;;13.85;7.25;;;26.60;61.30;;;;;;4989151;28;20023;-51
2023/07/02 11:55:01;;;;;;;14.82;7.63;;;27.30;61.00;;;;;;4988836;28;20087;-51
2023/07/02 11:57:26;;;;;;;16.05;7.07;;;28.20;61.00;;;;;;4971198;28;20159;-51
2023/07/02 11:59:52;;;;;;;15.40;7.03;;;28.10;59.60;;;;;;4988670;28;20030;-51
2023/07/02 12:02:18;;;;;;;16.17;7.38;;;28.00;58.00;;;;;;4988473;28;20033;-51
2023/07/02 12:04:44;;;;;;;17.02;8.35;;;27.30;58.60;;;;;;4999506;28;20037;-51
2023/07/02 12:07:09;;;;;;;14.32;7.50;;;27.00;59.90;;;;;;4995053;28;20388;-52
2023/07/02 12:09:36;;;;;;;19.25;8.23;;;26.60;60.40;;;;;;4988893;28;20211;-49
2023/07/02 12:12:01;;;;;;;16.25;8.02;;;25.90;61.90;;;;;;4988558;28;20368;-48
2023/07/02 12:14:27;;;;;;;13.95;6.70;;;25.50;61.50;;;;;;4988076;28;20041;-50
2023/07/02 12:16:52;;;;;;;13.65;7.13;;;25.50;63.10;;;;;;5025987;28;20507;-49
2023/07/02 12:19:18;;;;;;;18.63;7.25;;;25.50;63.20;;;;;;5005802;28;20042;-49
2023/07/02 12:21:43;;;;;;;15.82;6.93;;;25.20;63.10;;;;;;4970819;28;20140;-50
2023/07/02 12:24:09;;;;;;;16.40;6.68;;;24.70;63.10;;;;;;4988750;28;20030;-50
2023/07/02 12:26:36;;;;;;;16.42;7.32;;;24.50;62.80;;;;;;4987616;28;20040;-48
2023/07/02 12:29:01;;;;;;;12.27;6.93;;;24.40;66.50;;;;;;5049414;28;20027;-51
2023/07/02 12:31:27;;;;;;;16.58;7.30;;;24.60;64.10;;;;;;5007641;28;20040;-49
2023/07/02 12:33:52;;;;;;;20.83;7.80;;;24.30;64.80;;;;;;5029915;28;20141;-51
2023/07/02 12:36:18;;;;;;;15.82;7.00;;;24.30;64.60;;;;;;4971725;28;20034;-51